Time;durP1;ratioP1;P1;durP2;ratioP2;P2;SDS_P1;SDS_P2;PMS_P1;PMS_P2;Temp;Humidity;BMP_temperature;BMP_pressure;BME280_temperature;BME280_humidity;BME280_pressure;Samples;Min_cycle;Max_cycle;Signal;HPM_P1;HPM_P2
2023/11/29 00:02:21;;;;;;;;;;;-2.40;99.90;;;;;;5035344;28;19929;-62
2023/11/29 00:04:48;;;;;;;;;;;-2.40;99.90;;;;;;5030142;28;19934;-63
2023/11/29 00:07:15;;;;;;;;;;;-2.40;99.90;;;;;;5031080;28;20297;-63
2023/11/29 00:09:42;;;;;;;;;;;-2.40;99.90;;;;;;5033601;28;19925;-62
2023/11/29 00:12:09;;;;;;;;;;;-2.40;99.90;;;;;;5033579;28;20355;-63
2023/11/29 00:14:36;;;;;;;;;;;-2.40;99.90;;;;;;5028461;28;19975;-66
2023/11/29 00:17:04;;;;;;;;;;;-2.50;99.90;;;;;;5031659;28;19935;-62
2023/11/29 00:19:37;;;;;;;;;;;-2.50;99.90;;;;;;5026969;28;19933;-63
2023/11/29 00:22:05;;;;;;;;;;;-2.50;99.90;;;;;;5033694;28;19929;-63
2023/11/29 00:24:32;;;;;;;;;;;-2.50;99.90;;;;;;5028162;28;20387;-63
2023/11/29 00:26:59;;;;;;;;;;;-2.60;99.90;;;;;;5034998;28;19936;-62
2023/11/29 00:29:27;;;;;;;;;;;-2.60;99.90;;;;;;5034849;28;20016;-62
2023/11/29 00:31:54;;;;;;;;;;;-2.60;99.90;;;;;;5030615;28;20008;-62
2023/11/29 00:34:21;;;;;;;;;;;-2.70;99.90;;;;;;5035810;28;19936;-62
2023/11/29 00:36:49;;;;;;;;;;;-2.80;99.90;;;;;;5032729;28;19929;-64
2023/11/29 00:39:18;;;;;;;;;;;-2.80;99.90;;;;;;5036845;28;19928;-64
2023/11/29 00:41:45;;;;;;;;;;;-2.90;99.90;;;;;;5031877;28;19968;-62
2023/11/29 00:44:12;;;;;;;;;;;-3.00;99.90;;;;;;5026429;28;19965;-63
2023/11/29 00:46:39;;;;;;;;;;;-3.10;99.90;;;;;;5033696;28;19933;-62
2023/11/29 00:49:06;;;;;;;;;;;-3.20;99.90;;;;;;5032413;28;20332;-63
2023/11/29 00:51:33;;;;;;;;;;;-3.40;99.90;;;;;;5044259;28;19949;-64
2023/11/29 00:54:00;;;;;;;;;;;-3.50;99.90;;;;;;5032271;28;19933;-64
2023/11/29 00:56:27;;;;;;;;;;;-3.60;99.90;;;;;;5034496;28;19929;-64
2023/11/29 00:58:54;;;;;;;;;;;-3.70;99.90;;;;;;5033048;28;20368;-63
2023/11/29 01:01:20;;;;;;;;;;;-3.70;99.90;;;;;;5030750;28;20003;-65
2023/11/29 01:03:47;;;;;;;;;;;-3.80;99.90;;;;;;5034506;28;20030;-62
2023/11/29 01:06:14;;;;;;;;;;;-3.90;99.90;;;;;;5032293;28;20398;-63
2023/11/29 01:08:43;;;;;;;;;;;-3.90;99.90;;;;;;5035176;28;19925;-62
2023/11/29 01:11:10;;;;;;;;;;;-4.00;99.90;;;;;;5034379;28;19967;-62
2023/11/29 01:13:37;;;;;;;;;;;-4.10;99.90;;;;;;5038753;28;19936;-63
2023/11/29 01:16:04;;;;;;;;;;;-4.10;99.90;;;;;;5027415;28;20302;-63
2023/11/29 01:18:32;;;;;;;;;;;-4.20;99.90;;;;;;5050948;28;19968;-62
2023/11/29 01:20:59;;;;;;;;;;;-4.20;99.90;;;;;;5033856;28;19926;-64
2023/11/29 01:23:26;;;;;;;;;;;-4.30;99.90;;;;;;5029858;28;19987;-67
2023/11/29 01:25:53;;;;;;;;;;;-4.30;99.90;;;;;;5032136;28;19929;-63
2023/11/29 01:28:20;;;;;;;;;;;-4.40;99.90;;;;;;5026867;28;19951;-66
2023/11/29 01:30:47;;;;;;;;;;;-4.40;99.90;;;;;;5033915;28;19944;-62
2023/11/29 01:33:13;;;;;;;;;;;-4.50;99.90;;;;;;5031309;28;19925;-64
2023/11/29 01:35:41;;;;;;;;;;;-4.50;99.90;;;;;;5029651;28;19936;-65
2023/11/29 01:38:08;;;;;;;;;;;-4.50;99.90;;;;;;5050177;28;19937;-62
2023/11/29 01:40:35;;;;;;;;;;;-4.60;99.90;;;;;;5032580;28;20024;-65
2023/11/29 01:43:02;;;;;;;;;;;-4.60;99.90;;;;;;5025660;28;19957;-65
2023/11/29 01:45:30;;;;;;;;;;;-4.70;99.90;;;;;;5027060;28;19952;-63
2023/11/29 01:47:58;;;;;;;;;;;-4.70;99.90;;;;;;5024927;28;20025;-64
2023/11/29 01:50:28;;;;;;;;;;;-4.70;99.90;;;;;;5029854;28;19925;-65
2023/11/29 01:52:55;;;;;;;;;;;-4.60;99.90;;;;;;5029839;28;20407;-63
2023/11/29 01:55:22;;;;;;;;;;;-4.60;99.90;;;;;;5032540;28;19953;-62
2023/11/29 01:57:52;;;;;;;;;;;-4.60;99.90;;;;;;5028784;28;19925;-64
2023/11/29 02:00:19;;;;;;;;;;;-4.50;99.90;;;;;;5031431;28;20032;-65
2023/11/29 02:02:46;;;;;;;;;;;-4.50;99.90;;;;;;5029847;28;19972;-66
2023/11/29 02:05:13;;;;;;;;;;;-4.50;99.90;;;;;;5031355;28;19933;-63
2023/11/29 02:07:40;;;;;;;;;;;-4.50;99.90;;;;;;5031853;28;20032;-62
2023/11/29 02:10:07;;;;;;;;;;;-4.50;99.90;;;;;;5036340;28;19967;-65
2023/11/29 02:12:34;;;;;;;;;;;-4.40;99.90;;;;;;5034213;28;20001;-62
2023/11/29 02:15:02;;;;;;;;;;;-4.40;99.90;;;;;;5031078;28;20477;-62
2023/11/29 02:17:29;;;;;;;;;;;-4.40;99.90;;;;;;5027498;28;19933;-64
2023/11/29 02:19:57;;;;;;;;;;;-4.40;99.90;;;;;;5025646;28;19948;-62
2023/11/29 02:22:26;;;;;;;;;;;-4.40;99.90;;;;;;5021926;28;19944;-63
2023/11/29 02:24:53;;;;;;;;;;;-4.40;99.90;;;;;;5043766;28;20263;-62
2023/11/29 02:27:23;;;;;;;;;;;-4.40;99.90;;;;;;5034341;28;19964;-69
2023/11/29 02:29:50;;;;;;;;;;;-4.40;99.90;;;;;;5030065;28;19960;-63
2023/11/29 02:32:17;;;;;;;;;;;-4.30;99.90;;;;;;5028279;28;20004;-63
2023/11/29 02:34:44;;;;;;;;;;;-4.30;99.90;;;;;;5030427;28;20016;-62
2023/11/29 02:37:11;;;;;;;;;;;-4.30;99.90;;;;;;5025152;28;19932;-64
2023/11/29 02:39:39;;;;;;;;;;;-4.30;99.90;;;;;;5028263;28;19979;-63
2023/11/29 02:42:05;;;;;;;;;;;-4.30;99.90;;;;;;5031485;28;19932;-62
2023/11/29 02:44:32;;;;;;;;;;;-4.30;99.90;;;;;;5031962;28;20335;-65
2023/11/29 02:46:59;;;;;;;;;;;-4.30;99.90;;;;;;5031971;28;19952;-63
2023/11/29 02:49:26;;;;;;;;;;;-4.30;99.90;;;;;;5037454;28;19951;-62
2023/11/29 02:51:53;;;;;;;;;;;-4.30;99.90;;;;;;5027865;28;20448;-65
2023/11/29 02:54:19;;;;;;;;;;;-4.30;99.90;;;;;;5032576;28;19924;-65
2023/11/29 02:56:46;;;;;;;;;;;-4.30;99.90;;;;;;5032663;28;20024;-62
2023/11/29 02:59:13;;;;;;;;;;;-4.30;99.90;;;;;;5035989;28;20253;-64
2023/11/29 03:01:40;;;;;;;;;;;-4.30;99.90;;;;;;5032911;28;20011;-67
2023/11/29 03:04:07;;;;;;;;;;;-4.30;99.90;;;;;;5035564;28;19925;-67
2023/11/29 03:06:34;;;;;;;;;;;-4.30;99.90;;;;;;5028288;28;20099;-63
2023/11/29 03:09:01;;;;;;;;;;;-4.30;99.90;;;;;;5029275;28;19925;-67
2023/11/29 03:11:27;;;;;;;;;;;-4.30;99.90;;;;;;5027882;28;20441;-62
2023/11/29 03:13:54;;;;;;;;;;;-4.30;99.90;;;;;;5027304;28;20505;-65
2023/11/29 03:16:21;;;;;;;;;;;-4.40;99.90;;;;;;5039578;28;19968;-62
2023/11/29 03:18:48;;;;;;;;;;;-4.40;99.90;;;;;;5034041;28;19937;-62
2023/11/29 03:21:15;;;;;;;;;;;-4.40;99.90;;;;;;5050634;28;19933;-62
2023/11/29 03:23:45;;;;;;;;;;;-4.40;99.90;;;;;;5035584;28;19932;-63
2023/11/29 03:26:11;;;;;;;;;;;-4.40;99.90;;;;;;5041121;28;20280;-62
2023/11/29 03:28:38;;;;;;;;;;;-4.40;99.90;;;;;;5033725;28;20396;-66
2023/11/29 03:31:05;;;;;;;;;;;-4.50;99.90;;;;;;5034338;28;19937;-64
2023/11/29 03:33:32;;;;;;;;;;;-4.50;99.90;;;;;;5035128;28;19929;-62
2023/11/29 03:35:59;;;;;;;;;;;-4.50;99.90;;;;;;5032586;28;19925;-62
2023/11/29 03:38:26;;;;;;;;;;;-4.50;99.90;;;;;;5037055;28;20330;-65
2023/11/29 03:40:53;;;;;;;;;;;-4.50;99.90;;;;;;5036979;28;20494;-63
2023/11/29 03:43:20;;;;;;;;;;;-4.50;99.90;;;;;;5030343;28;21198;-70
2023/11/29 03:45:47;;;;;;;;;;;-4.50;99.90;;;;;;5034586;28;19935;-65
2023/11/29 03:48:15;;;;;;;;;;;-4.40;99.90;;;;;;5031393;28;20644;-62
2023/11/29 03:50:43;;;;;;;;;;;-4.40;99.90;;;;;;5031784;28;19941;-61
2023/11/29 03:53:10;;;;;;;;;;;-4.40;99.90;;;;;;5034440;28;19931;-64
2023/11/29 03:55:38;;;;;;;;;;;-4.40;99.90;;;;;;5028009;28;20016;-63
2023/11/29 03:58:05;;;;;;;;;;;-4.40;99.90;;;;;;5034432;28;20343;-62
2023/11/29 04:00:34;;;;;;;;;;;-4.30;99.90;;;;;;5034228;28;20657;-62
2023/11/29 04:03:01;;;;;;;;;;;-4.30;99.90;;;;;;5032868;28;19932;-61
2023/11/29 04:05:28;;;;;;;;;;;-4.30;99.90;;;;;;5031617;28;19975;-62
2023/11/29 04:07:55;;;;;;;;;;;-4.30;99.90;;;;;;5030204;28;19968;-66
2023/11/29 04:10:21;;;;;;;;;;;-4.30;99.90;;;;;;5035014;28;19968;-64
2023/11/29 04:12:48;;;;;;;;;;;-4.20;99.90;;;;;;5031818;28;19929;-61
2023/11/29 04:15:15;;;;;;;;;;;-4.20;99.90;;;;;;5033321;28;19929;-62
2023/11/29 04:17:42;;;;;;;;;;;-4.10;99.90;;;;;;5031879;28;19929;-66
2023/11/29 04:20:09;;;;;;;;;;;-4.10;99.90;;;;;;5019292;28;19924;-64
2023/11/29 04:22:37;;;;;;;;;;;-4.10;99.90;;;;;;5030954;28;19932;-63
2023/11/29 04:25:05;;;;;;;;;;;-4.10;99.90;;;;;;5031716;28;20406;-68
2023/11/29 04:27:33;;;;;;;;;;;-4.10;99.90;;;;;;5003977;28;19936;-72
2023/11/29 04:30:00;;;;;;;;;;;-4.10;99.90;;;;;;5033369;28;19930;-62
2023/11/29 04:32:27;;;;;;;;;;;-4.10;99.90;;;;;;5029508;28;19979;-65
2023/11/29 04:34:54;;;;;;;;;;;-4.10;99.90;;;;;;5034697;28;20023;-64
2023/11/29 04:37:21;;;;;;;;;;;-4.20;99.90;;;;;;5045908;28;19937;-68
2023/11/29 04:39:48;;;;;;;;;;;-4.20;99.90;;;;;;5030735;28;19929;-62
2023/11/29 04:42:15;;;;;;;;;;;-4.20;99.90;;;;;;5030332;28;19983;-70
2023/11/29 04:44:43;;;;;;;;;;;-4.30;99.90;;;;;;5050849;28;20431;-63
2023/11/29 04:47:10;;;;;;;;;;;-4.30;99.90;;;;;;5031623;28;19925;-64
2023/11/29 04:49:37;;;;;;;;;;;-4.30;99.90;;;;;;5036012;28;19951;-65
2023/11/29 04:52:04;;;;;;;;;;;-4.30;99.90;;;;;;5039444;28;20372;-65
2023/11/29 04:54:30;;;;;;;;;;;-4.30;99.90;;;;;;5032172;28;19929;-65
2023/11/29 04:56:57;;;;;;;;;;;-4.30;99.90;;;;;;5029104;28;19932;-65
2023/11/29 04:59:24;;;;;;;;;;;-4.30;99.90;;;;;;5032486;28;19930;-65
2023/11/29 05:01:51;;;;;;;;;;;-4.30;99.90;;;;;;5031459;28;19925;-62
2023/11/29 05:04:18;;;;;;;;;;;-4.30;99.90;;;;;;5027923;28;19929;-67
2023/11/29 05:06:46;;;;;;;;;;;-4.30;99.90;;;;;;5039798;28;20292;-62
2023/11/29 05:09:14;;;;;;;;;;;-4.30;99.90;;;;;;5029234;28;20330;-62
2023/11/29 05:11:41;;;;;;;;;;;-4.30;99.90;;;;;;5035194;28;19956;-64
2023/11/29 05:14:08;;;;;;;;;;;-4.30;99.90;;;;;;5032834;28;19925;-61
2023/11/29 05:16:35;;;;;;;;;;;-4.30;99.90;;;;;;5032730;28;19925;-64
2023/11/29 05:19:02;;;;;;;;;;;-4.30;99.90;;;;;;5032745;28;19999;-62
2023/11/29 05:21:29;;;;;;;;;;;-4.30;99.90;;;;;;5032580;28;20024;-62
2023/11/29 05:23:56;;;;;;;;;;;-4.30;99.90;;;;;;5030083;28;19968;-65
2023/11/29 05:26:22;;;;;;;;;;;-4.30;99.90;;;;;;5029702;28;19929;-63
2023/11/29 05:28:50;;;;;;;;;;;-4.30;99.90;;;;;;5032812;28;19929;-63
2023/11/29 05:31:19;;;;;;;;;;;-4.20;99.90;;;;;;5034767;28;20256;-64
2023/11/29 05:33:47;;;;;;;;;;;-4.20;99.90;;;;;;5031181;28;19932;-71
2023/11/29 05:36:14;;;;;;;;;;;-4.20;99.90;;;;;;5034320;28;19932;-61
2023/11/29 05:38:42;;;;;;;;;;;-4.20;99.90;;;;;;5034784;28;19971;-62
2023/11/29 05:41:12;;;;;;;;;;;-4.20;99.90;;;;;;5028621;28;20063;-63
2023/11/29 05:43:40;;;;;;;;;;;-4.20;99.90;;;;;;5038520;28;19929;-68
2023/11/29 05:46:07;;;;;;;;;;;-4.20;99.90;;;;;;5029197;28;20190;-62
2023/11/29 05:48:33;;;;;;;;;;;-4.20;99.90;;;;;;5034805;28;19932;-62
2023/11/29 05:51:01;;;;;;;;;;;-4.20;99.90;;;;;;5031240;28;19932;-66
2023/11/29 05:53:28;;;;;;;;;;;-4.20;99.90;;;;;;5025583;28;19929;-65
2023/11/29 05:55:55;;;;;;;;;;;-4.20;99.90;;;;;;5032487;28;19929;-61
2023/11/29 05:58:22;;;;;;;;;;;-4.20;99.90;;;;;;5034168;28;19933;-64
2023/11/29 06:00:50;;;;;;;;;;;-4.20;99.90;;;;;;5036083;28;19935;-64
2023/11/29 06:03:16;;;;;;;;;;;-4.20;99.90;;;;;;5032229;28;19929;-63
2023/11/29 06:05:43;;;;;;;;;;;-4.30;99.90;;;;;;5025750;28;20016;-65
2023/11/29 06:08:10;;;;;;;;;;;-4.30;99.90;;;;;;5029194;28;19929;-64
2023/11/29 06:10:37;;;;;;;;;;;-4.30;99.90;;;;;;5029630;28;19986;-62
2023/11/29 06:13:04;;;;;;;;;;;-4.40;99.90;;;;;;5030307;28;19991;-67
2023/11/29 06:15:31;;;;;;;;;;;-4.40;99.90;;;;;;5034543;28;19956;-69
2023/11/29 06:18:00;;;;;;;;;;;-4.50;99.90;;;;;;5034458;28;19926;-64
2023/11/29 06:20:27;;;;;;;;;;;-4.60;99.90;;;;;;5031425;28;19948;-62
2023/11/29 06:22:54;;;;;;;;;;;-4.70;99.90;;;;;;5035593;28;19929;-62
2023/11/29 06:25:21;;;;;;;;;;;-4.80;99.90;;;;;;5032394;28;19935;-62
2023/11/29 06:27:48;;;;;;;;;;;-4.90;99.90;;;;;;5031720;28;19925;-65
2023/11/29 06:30:16;;;;;;;;;;;-4.90;99.90;;;;;;5029254;28;19925;-62
2023/11/29 06:32:43;;;;;;;;;;;-5.00;99.90;;;;;;5031124;28;19929;-63
2023/11/29 06:35:13;;;;;;;;;;;-5.10;99.90;;;;;;5035201;28;19929;-63
2023/11/29 06:37:42;;;;;;;;;;;-5.20;99.90;;;;;;5029163;28;19934;-63
2023/11/29 06:40:16;;;;;;;;;;;-5.30;99.90;;;;;;5027829;28;20020;-65
2023/11/29 06:42:43;;;;;;;;;;;-5.40;99.90;;;;;;5031944;28;20515;-65
2023/11/29 06:45:10;;;;;;;;;;;-5.50;99.90;;;;;;5047947;28;20323;-62
2023/11/29 06:47:37;;;;;;;;;;;-5.50;99.90;;;;;;5031465;28;19925;-61
2023/11/29 06:50:05;;;;;;;;;;;-5.60;99.90;;;;;;5035006;28;19963;-65
2023/11/29 06:52:32;;;;;;;;;;;-5.70;99.90;;;;;;5035143;28;19964;-61
2023/11/29 06:54:59;;;;;;;;;;;-5.70;99.90;;;;;;5036959;28;20287;-65
2023/11/29 06:57:26;;;;;;;;;;;-5.80;99.90;;;;;;5036317;28;19994;-64
2023/11/29 06:59:53;;;;;;;;;;;-5.80;99.90;;;;;;5037600;28;19925;-61
2023/11/29 07:02:20;;;;;;;;;;;-5.90;99.90;;;;;;5031726;28;19929;-62
2023/11/29 07:04:48;;;;;;;;;;;-5.90;99.90;;;;;;5034106;28;20020;-61
2023/11/29 07:07:16;;;;;;;;;;;-6.00;99.90;;;;;;5035113;28;19933;-61
2023/11/29 07:09:43;;;;;;;;;;;-6.10;99.90;;;;;;5032595;28;19925;-62
2023/11/29 07:12:10;;;;;;;;;;;-6.10;99.90;;;;;;5033565;28;19933;-64
2023/11/29 07:14:37;;;;;;;;;;;-6.20;99.90;;;;;;5029052;28;19925;-63
2023/11/29 07:17:05;;;;;;;;;;;-6.20;99.90;;;;;;5032650;28;19933;-63
2023/11/29 07:19:33;;;;;;;;;;;-6.30;99.90;;;;;;5040866;28;20265;-62
2023/11/29 07:22:00;;;;;;;;;;;-6.30;99.90;;;;;;5029532;28;20016;-64
2023/11/29 07:24:27;;;;;;;;;;;-6.30;99.90;;;;;;5031749;28;20581;-68
2023/11/29 07:26:54;;;;;;;;;;;-6.40;99.90;;;;;;5032167;28;19925;-66
2023/11/29 07:29:20;;;;;;;;;;;-6.40;99.90;;;;;;5037948;28;19931;-64
2023/11/29 07:31:47;;;;;;;;;;;-6.50;99.90;;;;;;5035021;28;19929;-62
2023/11/29 07:34:14;;;;;;;;;;;-6.50;99.90;;;;;;5030991;28;19963;-62
2023/11/29 07:36:49;;;;;;;;;;;-6.60;99.90;;;;;;5036507;28;19979;-68
2023/11/29 07:39:16;;;;;;;;;;;-6.60;99.90;;;;;;5032061;28;20300;-68
2023/11/29 07:41:42;;;;;;;;;;;-6.60;99.90;;;;;;5032788;28;20010;-61
2023/11/29 07:44:09;;;;;;;;;;;-6.70;99.90;;;;;;5032815;28;19963;-63
2023/11/29 07:46:38;;;;;;;;;;;-6.70;99.90;;;;;;5035005;28;20006;-63
2023/11/29 07:49:05;;;;;;;;;;;-6.70;99.90;;;;;;5034286;28;20334;-61
2023/11/29 07:51:31;;;;;;;;;;;-6.70;99.90;;;;;;5035324;28;19929;-62
2023/11/29 07:53:58;;;;;;;;;;;-6.70;99.90;;;;;;5034719;28;19929;-63
2023/11/29 07:56:25;;;;;;;;;;;-6.70;99.90;;;;;;5035295;28;20027;-61
2023/11/29 07:58:52;;;;;;;;;;;-6.70;99.90;;;;;;5036061;28;19940;-65
2023/11/29 08:01:19;;;;;;;;;;;-6.70;99.90;;;;;;5032146;28;19925;-67
2023/11/29 08:03:46;;;;;;;;;;;-6.70;99.90;;;;;;5030851;28;20287;-61
2023/11/29 08:06:13;;;;;;;;;;;-6.70;99.90;;;;;;5039355;28;20020;-61
2023/11/29 08:08:40;;;;;;;;;;;-6.70;99.90;;;;;;5036560;28;19925;-64
2023/11/29 08:11:07;;;;;;;;;;;-6.70;99.90;;;;;;5034084;28;19925;-71
2023/11/29 08:13:34;;;;;;;;;;;-6.70;99.90;;;;;;5038431;28;19928;-61
2023/11/29 08:16:01;;;;;;;;;;;-6.70;99.90;;;;;;5029253;28;20303;-61
2023/11/29 08:18:27;;;;;;;;;;;-6.80;99.90;;;;;;5028643;28;19929;-61
2023/11/29 08:20:54;;;;;;;;;;;-6.80;99.90;;;;;;5033842;28;20051;-62
2023/11/29 08:23:21;;;;;;;;;;;-6.80;99.90;;;;;;5031899;28;19933;-65
2023/11/29 08:25:48;;;;;;;;;;;-6.80;99.90;;;;;;5041241;28;19928;-61
2023/11/29 08:28:15;;;;;;;;;;;-6.80;99.90;;;;;;5033256;28;19956;-61
2023/11/29 08:30:42;;;;;;;;;;;-6.80;99.90;;;;;;5033279;28;20321;-62
2023/11/29 08:33:09;;;;;;;;;;;-6.70;99.90;;;;;;5034203;28;20299;-61
2023/11/29 08:35:38;;;;;;;;;;;-6.70;99.90;;;;;;5029492;28;19929;-61
2023/11/29 08:38:05;;;;;;;;;;;-6.70;99.90;;;;;;5034410;28;20334;-61
2023/11/29 08:40:34;;;;;;;;;;;-6.70;99.90;;;;;;5031926;28;19948;-64
2023/11/29 08:43:01;;;;;;;;;;;-6.60;99.90;;;;;;5031321;28;19925;-62
2023/11/29 08:45:40;;;;;;;;;;;-6.60;99.90;;;;;;5031725;28;19929;-64
2023/11/29 08:48:08;;;;;;;;;;;-6.50;99.90;;;;;;5035035;28;19958;-61
2023/11/29 08:50:35;;;;;;;;;;;-6.50;99.90;;;;;;5030964;28;19936;-62
2023/11/29 08:53:02;;;;;;;;;;;-6.50;99.90;;;;;;5034428;28;20283;-69
2023/11/29 08:55:28;;;;;;;;;;;-6.40;99.90;;;;;;5032720;28;19933;-65
2023/11/29 08:57:55;;;;;;;;;;;-6.40;99.90;;;;;;5028996;28;19929;-66
2023/11/29 09:00:22;;;;;;;;;;;-6.30;99.90;;;;;;5038183;28;20010;-63
2023/11/29 09:02:49;;;;;;;;;;;-6.30;99.90;;;;;;5035100;28;19932;-62
2023/11/29 09:05:19;;;;;;;;;;;-6.20;99.90;;;;;;5035777;28;20363;-72
2023/11/29 09:07:47;;;;;;;;;;;-6.20;99.90;;;;;;5034591;28;20050;-62
2023/11/29 09:10:14;;;;;;;;;;;-6.20;99.90;;;;;;5037631;28;19935;-66
2023/11/29 09:12:41;;;;;;;;;;;-6.10;99.90;;;;;;5032328;28;19987;-61
2023/11/29 09:15:09;;;;;;;;;;;-6.10;99.90;;;;;;5033025;28;20482;-64
2023/11/29 09:17:36;;;;;;;;;;;-6.10;99.90;;;;;;5036311;28;19932;-70
2023/11/29 09:20:03;;;;;;;;;;;-6.00;99.90;;;;;;5032780;28;19955;-62
2023/11/29 09:22:30;;;;;;;;;;;-6.00;99.90;;;;;;5051178;28;20444;-64
2023/11/29 09:24:57;;;;;;;;;;;-5.90;99.90;;;;;;5030822;28;19933;-60
2023/11/29 09:27:24;;;;;;;;;;;-5.80;99.90;;;;;;5031298;28;19929;-63
2023/11/29 09:29:52;;;;;;;;;;;-5.80;99.90;;;;;;5031989;28;19951;-64
2023/11/29 09:32:19;;;;;;;;;;;-5.80;99.90;;;;;;5033608;28;19979;-62
2023/11/29 09:34:46;;;;;;;;;;;-5.70;99.90;;;;;;5031339;28;19948;-62
2023/11/29 09:37:12;;;;;;;;;;;-5.70;99.90;;;;;;5032182;28;19972;-64
2023/11/29 09:39:39;;;;;;;;;;;-5.70;99.90;;;;;;5035892;28;19999;-61
2023/11/29 09:42:07;;;;;;;;;;;-5.70;99.90;;;;;;5029788;28;19926;-64
2023/11/29 09:44:39;;;;;;;;;;;-5.60;99.90;;;;;;5033057;28;19925;-62
2023/11/29 09:47:06;;;;;;;;;;;-5.60;99.90;;;;;;5028709;28;19929;-61
2023/11/29 09:49:33;;;;;;;;;;;-5.60;99.90;;;;;;5029527;28;19929;-62
2023/11/29 09:52:00;;;;;;;;;;;-5.60;99.90;;;;;;5032563;28;20375;-64
2023/11/29 09:54:27;;;;;;;;;;;-5.50;99.90;;;;;;5029593;28;19929;-64
2023/11/29 09:56:54;;;;;;;;;;;-5.50;99.90;;;;;;5033048;28;19960;-62
2023/11/29 09:59:24;;;;;;;;;;;-5.40;99.90;;;;;;5030422;28;19999;-62
2023/11/29 10:01:51;;;;;;;;;;;-5.40;99.90;;;;;;5032976;28;20468;-62
2023/11/29 10:04:18;;;;;;;;;;;-5.30;99.90;;;;;;5029329;28;19929;-67
2023/11/29 10:06:45;;;;;;;;;;;-5.30;99.90;;;;;;5033611;28;19929;-64
2023/11/29 10:09:12;;;;;;;;;;;-5.30;99.90;;;;;;5031513;28;20472;-64
2023/11/29 10:11:39;;;;;;;;;;;-5.30;99.90;;;;;;5020573;28;20350;-61
2023/11/29 10:14:07;;;;;;;;;;;-5.20;99.90;;;;;;5026250;28;19932;-62
2023/11/29 10:16:34;;;;;;;;;;;-5.20;99.90;;;;;;5023720;28;19936;-64
2023/11/29 10:19:01;;;;;;;;;;;-5.10;99.90;;;;;;5028594;28;20399;-63
2023/11/29 10:21:28;;;;;;;;;;;-5.00;99.90;;;;;;5028892;28;19929;-61
2023/11/29 10:23:55;;;;;;;;;;;-5.00;99.90;;;;;;5025897;28;19933;-66
2023/11/29 10:26:22;;;;;;;;;;;-4.90;99.90;;;;;;5027844;28;19933;-64
2023/11/29 10:28:51;;;;;;;;;;;-4.90;99.90;;;;;;5030183;28;19925;-61
2023/11/29 10:31:18;;;;;;;;;;;-4.90;99.90;;;;;;5026542;28;19979;-65
2023/11/29 10:33:45;;;;;;;;;;;-4.80;99.90;;;;;;5023053;28;21177;-62
2023/11/29 10:36:13;;;;;;;;;;;-4.80;99.90;;;;;;5026117;28;19929;-61
2023/11/29 10:38:48;;;;;;;;;;;-4.70;99.90;;;;;;5040342;28;20457;-61
2023/11/29 10:41:17;;;;;;;;;;;-4.70;99.90;;;;;;5028162;28;19955;-64
2023/11/29 10:43:46;;;;;;;;;;;-4.70;99.90;;;;;;5029010;28;19940;-64
2023/11/29 10:46:21;;;;;;;;;;;-4.60;99.90;;;;;;5026913;28;19929;-71
2023/11/29 10:48:51;;;;;;;;;;;-4.60;99.90;;;;;;5025646;28;20397;-63
2023/11/29 10:51:18;;;;;;;;;;;-4.60;99.90;;;;;;5031104;28;19969;-66
2023/11/29 10:53:47;;;;;;;;;;;-4.50;99.90;;;;;;5025476;28;19971;-62
2023/11/29 10:56:14;;;;;;;;;;;-4.50;99.90;;;;;;5029790;28;19925;-61
2023/11/29 10:58:56;;;;;;;;;;;-4.50;99.90;;;;;;5024040;28;20032;-63
2023/11/29 11:01:34;;;;;;;;;;;-4.50;99.90;;;;;;5026888;28;20407;-62
2023/11/29 11:04:01;;;;;;;;;;;-4.40;99.90;;;;;;5027919;28;19933;-63
2023/11/29 11:06:29;;;;;;;;;;;-4.40;99.90;;;;;;5026944;28;20000;-64
2023/11/29 11:08:56;;;;;;;;;;;-4.40;99.90;;;;;;5030126;28;19929;-61
2023/11/29 11:11:38;;;;;;;;;;;-4.40;99.90;;;;;;5028987;28;20497;-62
2023/11/29 11:14:09;;;;;;;;;;;-4.30;99.90;;;;;;5031151;28;19929;-65
2023/11/29 11:16:36;;;;;;;;;;;-4.30;99.90;;;;;;5029503;28;20048;-67
2023/11/29 11:19:03;;;;;;;;;;;-4.30;99.90;;;;;;5026876;28;20278;-65
2023/11/29 11:21:30;;;;;;;;;;;-4.20;99.90;;;;;;5025124;28;19925;-61
2023/11/29 11:24:00;;;;;;;;;;;-4.20;99.90;;;;;;5027769;28;20631;-62
2023/11/29 11:26:27;;;;;;;;;;;-4.20;99.90;;;;;;5028722;28;19925;-64
2023/11/29 11:28:58;;;;;;;;;;;-4.10;99.90;;;;;;5025656;28;19940;-64
2023/11/29 11:31:27;;;;;;;;;;;-4.10;99.90;;;;;;5026718;28;19969;-62
2023/11/29 11:33:54;;;;;;;;;;;-4.10;99.90;;;;;;5030724;28;19925;-62
2023/11/29 11:36:21;;;;;;;;;;;-4.10;99.90;;;;;;5031038;28;19925;-63
2023/11/29 11:38:52;;;;;;;;;;;-4.10;99.90;;;;;;5031445;28;20362;-62
2023/11/29 11:41:19;;;;;;;;;;;-4.10;99.90;;;;;;5030399;28;20589;-65
2023/11/29 11:43:46;;;;;;;;;;;-4.10;99.90;;;;;;5030832;28;19931;-63
2023/11/29 11:46:15;;;;;;;;;;;-4.10;99.90;;;;;;5028185;28;20016;-64
2023/11/29 11:48:46;;;;;;;;;;;-4.00;99.90;;;;;;5034043;28;19925;-60
2023/11/29 11:51:13;;;;;;;;;;;-4.00;99.90;;;;;;5037062;28;19947;-61
2023/11/29 11:53:40;;;;;;;;;;;-4.00;99.90;;;;;;5035525;28;19928;-61
2023/11/29 11:56:18;;;;;;;;;;;-4.00;99.90;;;;;;5032431;28;19925;-62
2023/11/29 11:58:45;;;;;;;;;;;-3.90;99.90;;;;;;5031123;28;20020;-62
2023/11/29 12:01:12;;;;;;;;;;;-3.90;99.90;;;;;;5031584;28;19925;-61
2023/11/29 12:03:39;;;;;;;;;;;-3.90;99.90;;;;;;5031676;28;19929;-61
2023/11/29 12:06:06;;;;;;;;;;;-3.80;99.90;;;;;;5039529;28;19932;-64
2023/11/29 12:08:33;;;;;;;;;;;-3.80;99.90;;;;;;5036201;28;20028;-64
2023/11/29 12:11:00;;;;;;;;;;;-3.80;99.90;;;;;;5038589;28;19971;-66
2023/11/29 12:13:27;;;;;;;;;;;-3.80;99.90;;;;;;5031912;28;20070;-62
2023/11/29 12:15:54;;;;;;;;;;;-3.70;99.90;;;;;;5030525;28;19964;-62
2023/11/29 12:18:23;;;;;;;;;;;-3.70;99.90;;;;;;5036077;28;20004;-62
2023/11/29 12:20:50;;;;;;;;;;;-3.70;99.90;;;;;;5031115;28;19995;-62
2023/11/29 12:23:26;;;;;;;;;;;-3.70;99.90;;;;;;5029108;28;20286;-65
2023/11/29 12:25:54;;;;;;;;;;;-3.70;99.90;;;;;;5033471;28;20065;-65
2023/11/29 12:28:28;;;;;;;;;;;-3.70;99.90;;;;;;5031968;28;19947;-65
2023/11/29 12:30:58;;;;;;;;;;;-3.70;99.90;;;;;;5026819;28;20497;-70
2023/11/29 12:33:25;;;;;;;;;;;-3.70;99.90;;;;;;5032715;28;19925;-61
2023/11/29 12:35:52;;;;;;;;;;;-3.80;99.90;;;;;;5031744;28;19929;-61
2023/11/29 12:38:19;;;;;;;;;;;-3.80;99.90;;;;;;5035453;28;20379;-65
2023/11/29 12:40:48;;;;;;;;;;;-3.80;99.90;;;;;;5035543;28;19925;-63
2023/11/29 12:43:15;;;;;;;;;;;-3.90;99.90;;;;;;5036095;28;20005;-63
2023/11/29 12:45:42;;;;;;;;;;;-3.90;99.90;;;;;;5029192;28;20329;-60
2023/11/29 12:48:08;;;;;;;;;;;-4.00;99.90;;;;;;5033028;28;19966;-62
2023/11/29 12:50:35;;;;;;;;;;;-4.00;99.90;;;;;;5029969;28;20283;-64
2023/11/29 12:53:05;;;;;;;;;;;-4.00;99.90;;;;;;5036706;28;20020;-61
2023/11/29 12:55:32;;;;;;;;;;;-4.10;99.90;;;;;;5026274;28;19929;-64
2023/11/29 12:57:58;;;;;;;;;;;-4.10;99.90;;;;;;5030783;28;19971;-65
2023/11/29 13:00:25;;;;;;;;;;;-4.10;99.90;;;;;;5028295;28;19939;-62
2023/11/29 13:02:52;;;;;;;;;;;-4.20;99.90;;;;;;5031432;28;20397;-62
2023/11/29 13:05:19;;;;;;;;;;;-4.20;99.90;;;;;;5036667;28;19964;-62
2023/11/29 13:07:46;;;;;;;;;;;-4.30;99.90;;;;;;5034247;28;19975;-62
2023/11/29 13:10:13;;;;;;;;;;;-4.30;99.90;;;;;;5032711;28;19936;-65
2023/11/29 13:12:40;;;;;;;;;;;-4.30;99.90;;;;;;5029085;28;19964;-61
2023/11/29 13:15:08;;;;;;;;;;;-4.40;99.90;;;;;;5028445;28;20358;-61
2023/11/29 13:17:35;;;;;;;;;;;-4.40;99.90;;;;;;5033026;28;19925;-71
2023/11/29 13:20:02;;;;;;;;;;;-4.40;99.90;;;;;;5029223;28;19955;-65
2023/11/29 13:22:29;;;;;;;;;;;-4.50;99.90;;;;;;5035050;28;19928;-62
2023/11/29 13:24:56;;;;;;;;;;;-4.50;99.90;;;;;;5032286;28;19925;-61
2023/11/29 13:27:23;;;;;;;;;;;-4.50;99.90;;;;;;5029517;28;19925;-63
2023/11/29 13:29:49;;;;;;;;;;;-4.60;99.90;;;;;;5036506;28;19928;-62
2023/11/29 13:32:16;;;;;;;;;;;-4.60;99.90;;;;;;5035199;28;19932;-62
2023/11/29 13:34:43;;;;;;;;;;;-4.70;99.90;;;;;;5032593;28;19956;-61
2023/11/29 13:37:10;;;;;;;;;;;-4.70;99.90;;;;;;5033984;28;19940;-64
2023/11/29 13:39:37;;;;;;;;;;;-4.80;99.90;;;;;;5028593;28;20395;-62
2023/11/29 13:42:04;;;;;;;;;;;-4.80;99.90;;;;;;5031650;28;19978;-61
2023/11/29 13:44:31;;;;;;;;;;;-4.90;99.90;;;;;;5034963;28;19988;-65
2023/11/29 13:46:57;;;;;;;;;;;-4.90;99.90;;;;;;5033672;28;19925;-61
2023/11/29 13:49:24;;;;;;;;;;;-5.00;99.90;;;;;;5029029;28;19929;-66
2023/11/29 13:51:51;;;;;;;;;;;-5.00;99.90;;;;;;5032670;28;19925;-67
2023/11/29 13:54:35;;;;;;;;;;;-5.10;99.90;;;;;;5027871;28;19929;-61
2023/11/29 13:57:03;;;;;;;;;;;-5.20;99.90;;;;;;5029759;28;20350;-61
2023/11/29 13:59:31;;;;;;;;;;;-5.20;99.90;;;;;;5029071;28;20351;-62
2023/11/29 14:01:58;;;;;;;;;;;-5.20;99.90;;;;;;5037406;28;20016;-61
2023/11/29 14:04:28;;;;;;;;;;;-5.30;99.90;;;;;;5028537;28;19972;-61
2023/11/29 14:06:55;;;;;;;;;;;-5.40;99.90;;;;;;5029586;28;19969;-60
2023/11/29 14:09:22;;;;;;;;;;;-5.50;99.90;;;;;;5029401;28;19936;-64
2023/11/29 14:11:49;;;;;;;;;;;-5.50;99.90;;;;;;5047721;28;20413;-60
2023/11/29 14:14:18;;;;;;;;;;;-5.60;99.90;;;;;;5028862;28;19931;-61
2023/11/29 14:16:45;;;;;;;;;;;-5.70;99.90;;;;;;5036125;28;20389;-64
2023/11/29 14:19:15;;;;;;;;;;;-5.70;99.90;;;;;;5029825;28;20843;-61